Time;durP1;ratioP1;P1;durP2;ratioP2;P2;SDS_P1;SDS_P2;PMS_P1;PMS_P2;Temp;Humidity;BMP_temperature;BMP_pressure;BME280_temperature;BME280_humidity;BME280_pressure;Samples;Min_cycle;Max_cycle;Signal;HPM_P1;HPM_P2
2021/11/16 00:02:47;;;;;;;60.30;31.42;;;4.50;99.90;;;;;;6227366;23;20119;-91
2021/11/16 00:05:48;;;;;;;60.13;32.08;;;4.60;99.90;;;;;;6231576;23;20026;-89
2021/11/16 00:08:50;;;;;;;65.05;33.95;;;4.60;99.90;;;;;;6228165;23;20032;-89
2021/11/16 00:12:03;;;;;;;68.03;34.22;;;4.60;99.90;;;;;;6221856;23;20470;-90
2021/11/16 00:19:26;;;;;;;;;;;;;;;;;;;;;
2021/11/16 00:23:04;;;;;;;71.43;33.75;;;4.60;99.90;;;;;;6101373;23;20022;-90
2021/11/16 00:30:14;;;;;;;;;;;;;;;;;;;;;
2021/11/16 00:34:13;;;;;;;;;;;;;;;;;;;;;
2021/11/16 00:37:28;;;;;;;;;;;4.60;99.90;;;;;;5960991;24;20033;-88
2021/11/16 00:40:48;;;;;;;68.32;32.97;;;4.60;99.90;;;;;;5999288;23;19929;-89
2021/11/16 00:43:41;;;;;;;62.95;32.75;;;4.60;99.90;;;;;;6077137;23;20026;-89
2021/11/16 00:46:37;;;;;;;62.83;33.05;;;4.60;99.90;;;;;;6124965;23;20045;-89
2021/11/16 00:49:36;;;;;;;61.85;31.52;;;4.50;99.90;;;;;;6108844;23;20033;-89
2021/11/16 00:52:53;;;;;;;69.93;32.88;;;4.60;99.90;;;;;;6130046;23;20093;-90
2021/11/16 00:55:57;;;;;;;;;;;;;;;;;;;;;
2021/11/16 00:59:29;;;;;;;;;;;;;;;;;;;;;
2021/11/16 01:06:10;;;;;;;62.33;31.45;;;4.50;99.90;;;;;;6226462;23;20032;-87
2021/11/16 01:08:58;;;;;;;64.60;31.70;;;4.50;99.90;;;;;;6219420;23;20028;-89
2021/11/16 01:11:45;;;;;;;63.53;32.10;;;4.50;99.90;;;;;;6194020;23;20025;-90
2021/11/16 01:14:45;;;;;;;67.70;33.42;;;4.50;99.90;;;;;;6215798;23;20036;-91
2021/11/16 01:17:40;;;;;;;65.88;33.53;;;4.50;99.90;;;;;;6195564;23;20546;-91
2021/11/16 01:20:27;;;;;;;69.30;33.65;;;4.40;99.90;;;;;;6218640;23;20031;-89
2021/11/16 01:23:18;;;;;;;65.18;32.22;;;4.40;99.90;;;;;;6217031;23;20032;-88
2021/11/16 01:26:06;;;;;;;71.18;34.58;;;4.40;99.90;;;;;;6194249;23;20048;-89
2021/11/16 01:29:55;;;;;;;50.25;25.63;;;4.40;99.90;;;;;;6200787;23;20024;-90
2021/11/16 01:36:42;;;;;;;;;;;;;;;;;;;;;
2021/11/16 01:39:36;;;;;;;64.70;31.27;;;4.40;99.90;;;;;;6218857;23;20388;-91
2021/11/16 01:42:35;;;;;;;62.30;30.15;;;4.40;99.90;;;;;;6219136;23;20025;-93
2021/11/16 01:45:51;;;;;;;60.40;29.75;;;4.30;99.90;;;;;;6195931;23;20044;-90
2021/11/16 01:49:03;;;;;;;63.60;31.95;;;4.40;99.90;;;;;;6197264;23;20105;-89
2021/11/16 01:52:13;;;;;;;61.63;31.40;;;4.40;99.90;;;;;;6217311;23;20039;-92
2021/11/16 01:55:14;;;;;;;;;;;;;;;;;;;;;
2021/11/16 02:02:08;;;;;;;60.00;30.75;;;4.30;99.90;;;;;;6220644;23;19915;-91
2021/11/16 02:06:25;;;;;;;;;;;;;;;;;;;;;
2021/11/16 02:13:17;;;;;;;56.17;30.42;;;4.30;99.90;;;;;;6171599;23;20102;-89
2021/11/16 02:16:24;;;;;;;59.45;30.25;;;4.20;99.90;;;;;;6218195;23;20028;-91
2021/11/16 02:19:16;;;;;;;56.90;29.92;;;4.20;99.90;;;;;;6195740;23;20024;-90
2021/11/16 02:22:30;;;;;;;;;;;;;;;;;;;;;
2021/11/16 02:25:31;;;;;;;;;;;;;;;;;;;;;
2021/11/16 02:28:44;;;;;;;63.70;31.33;;;4.30;99.90;;;;;;6216498;23;20214;-88
2021/11/16 02:32:16;;;;;;;59.38;30.85;;;4.30;99.90;;;;;;6223894;23;20021;-90
2021/11/16 02:35:37;;;;;;;62.25;30.83;;;4.30;99.90;;;;;;6222148;23;20035;-89
2021/11/16 02:43:27;;;;;;;;;;;;;;;;;;;;;
2021/11/16 02:46:06;;;;;;;76.22;34.28;;;4.30;99.90;;;;;;6032504;23;20031;-88
2021/11/16 02:49:02;;;;;;;70.18;32.47;;;4.30;99.90;;;;;;6171210;23;20076;-86
2021/11/16 02:52:33;;;;;;;68.40;33.70;;;4.20;99.90;;;;;;6192874;23;20025;-84
2021/11/16 02:55:22;;;;;;;73.65;35.45;;;4.20;99.90;;;;;;6209117;23;20036;-87
2021/11/16 02:58:19;;;;;;;68.28;33.15;;;4.20;99.90;;;;;;6210820;23;20065;-87
2021/11/16 03:04:50;;;;;;;67.05;32.50;;;4.30;99.90;;;;;;6206277;23;20408;-90
2021/11/16 03:07:56;;;;;;;67.35;33.28;;;4.30;99.90;;;;;;6180038;23;20033;-92
2021/11/16 03:11:23;;;;;;;68.00;33.28;;;4.20;99.90;;;;;;6186335;23;20175;-91
2021/11/16 03:14:29;;;;;;;74.30;35.70;;;4.20;99.90;;;;;;6177266;23;20397;-92
2021/11/16 03:17:48;;;;;;;77.72;34.85;;;4.20;99.90;;;;;;6172794;23;20451;-91
2021/11/16 03:21:12;;;;;;;;;;;;;;;;;;;;;
2021/11/16 03:24:23;;;;;;;71.00;32.72;;;4.20;99.90;;;;;;6027823;23;20067;-88
2021/11/16 03:27:54;;;;;;;;;;;;;;;;;;;;;
2021/11/16 03:30:54;;;;;;;68.60;33.67;;;4.10;99.90;;;;;;6035113;23;20083;-89
2021/11/16 03:34:12;;;;;;;63.63;31.73;;;4.10;99.90;;;;;;5943692;24;20040;-90
2021/11/16 03:37:40;;;;;;;64.13;32.65;;;4.10;99.90;;;;;;5947718;24;20024;-91
2021/11/16 03:40:55;;;;;;;68.45;32.22;;;4.10;99.90;;;;;;5935635;24;20026;-90
2021/11/16 03:43:47;;;;;;;65.53;32.58;;;4.10;99.90;;;;;;5940011;24;20064;-86
2021/11/16 03:50:55;;;;;;;65.03;31.88;;;4.10;99.90;;;;;;5892181;24;20025;-89
2021/11/16 03:54:05;;;;;;;65.93;34.13;;;4.00;99.90;;;;;;5935556;24;20093;-92
2021/11/16 04:01:29;;;;;;;67.50;33.75;;;4.10;99.90;;;;;;5900401;24;20441;-89
2021/11/16 04:08:19;;;;;;;;;;;;;;;;;;;;;
2021/11/16 04:11:46;;;;;;;;;;;;;;;;;;;;;
2021/11/16 04:15:24;;;;;;;64.28;30.63;;;4.00;99.90;;;;;;5816063;24;20026;-86
2021/11/16 04:23:04;;;;;;;65.32;31.10;;;4.00;99.90;;;;;;5814479;24;20059;-89
2021/11/16 04:26:38;;;;;;;;;;;;;;;;;;;;;
2021/11/16 04:29:45;;;;;;;77.35;32.63;;;4.00;99.90;;;;;;5895971;24;20021;-90
2021/11/16 04:33:00;;;;;;;;;;;;;;;;;;;;;
2021/11/16 04:39:55;;;;;;;72.75;32.72;;;4.00;99.90;;;;;;5984596;23;20024;-90
2021/11/16 04:42:59;;;;;;;73.75;34.13;;;4.00;99.90;;;;;;6019355;23;20027;-91
2021/11/16 04:46:18;;;;;;;72.30;33.53;;;4.00;99.90;;;;;;6016357;23;20142;-90
2021/11/16 04:49:37;;;;;;;67.78;32.97;;;4.00;99.90;;;;;;6020239;23;20031;-89
2021/11/16 04:52:47;;;;;;;68.20;31.98;;;3.90;99.90;;;;;;6054077;23;20138;-90
2021/11/16 05:08:16;;;;;;;62.60;29.98;;;3.80;99.90;;;;;;5890751;24;20029;-89
2021/11/16 05:11:10;;;;;;;60.53;31.02;;;3.90;99.90;;;;;;5916581;24;20069;-90
2021/11/16 05:14:42;;;;;;;65.05;31.85;;;3.80;99.90;;;;;;5939785;24;20033;-90
2021/11/16 05:18:08;;;;;;;62.03;31.25;;;3.80;99.90;;;;;;5937567;24;20079;-88
2021/11/16 05:21:00;;;;;;;58.80;29.75;;;3.80;99.90;;;;;;5950639;24;20089;-88
2021/11/16 05:24:15;;;;;;;;;;;;;;;;;;;;;
2021/11/16 05:28:35;;;;;;;;;;;;;;;;;;;;;
2021/11/16 05:44:10;;;;;;;51.55;26.73;;;3.80;99.90;;;;;;6158173;23;20013;-85
2021/11/16 05:47:00;;;;;;;55.33;28.10;;;3.80;99.90;;;;;;6136409;23;20156;-83
2021/11/16 05:49:49;;;;;;;50.50;25.63;;;3.70;99.90;;;;;;6136201;23;20021;-82
2021/11/16 05:52:46;;;;;;;55.40;27.90;;;3.70;99.90;;;;;;6135420;23;20393;-85
2021/11/16 05:55:35;;;;;;;60.30;30.45;;;3.70;99.90;;;;;;6135442;23;20025;-87
2021/11/16 05:58:23;;;;;;;58.78;30.45;;;3.70;99.90;;;;;;6136692;23;20440;-86
2021/11/16 06:01:11;;;;;;;58.88;30.67;;;3.70;99.90;;;;;;6140105;23;20077;-88
2021/11/16 06:03:58;;;;;;;63.30;30.42;;;3.70;99.90;;;;;;6137761;23;20025;-87
2021/11/16 06:06:46;;;;;;;56.05;29.20;;;3.80;99.90;;;;;;6154763;23;20026;-88
2021/11/16 06:09:35;;;;;;;57.15;29.20;;;3.70;99.90;;;;;;6138256;23;20033;-85
2021/11/16 06:12:22;;;;;;;55.53;28.05;;;3.70;99.90;;;;;;6133950;23;20037;-89
2021/11/16 06:15:09;;;;;;;59.22;29.17;;;3.70;99.90;;;;;;6133923;23;20129;-88
2021/11/16 06:18:02;;;;;;;51.35;26.23;;;3.70;99.90;;;;;;6133704;23;20105;-84
2021/11/16 06:20:54;;;;;;;60.63;28.75;;;3.80;99.90;;;;;;6136111;23;20338;-86
2021/11/16 06:23:43;;;;;;;57.42;29.55;;;3.70;99.90;;;;;;6145275;23;20078;-88
2021/11/16 06:26:34;;;;;;;65.07;30.02;;;3.70;99.90;;;;;;6138013;23;20033;-87
2021/11/16 06:29:24;;;;;;;58.47;29.25;;;3.70;99.90;;;;;;6137227;23;20021;-83
2021/11/16 06:36:19;;;;;;;64.10;31.20;;;3.70;99.90;;;;;;6153865;23;20080;-86
2021/11/16 06:39:16;;;;;;;61.03;29.90;;;3.70;99.90;;;;;;6134980;23;20032;-86
2021/11/16 06:42:04;;;;;;;66.50;32.10;;;3.70;99.90;;;;;;6156660;23;20022;-85
2021/11/16 06:44:51;;;;;;;59.03;29.48;;;3.80;99.90;;;;;;6133433;23;20420;-84
2021/11/16 06:47:55;;;;;;;65.72;31.23;;;3.70;99.90;;;;;;6138844;23;20124;-85
2021/11/16 06:50:42;;;;;;;69.53;32.67;;;3.80;99.90;;;;;;6133753;23;20136;-84
2021/11/16 06:53:34;;;;;;;63.42;31.75;;;3.80;99.90;;;;;;6149623;23;20116;-84
2021/11/16 06:56:25;;;;;;;65.72;31.50;;;3.80;99.90;;;;;;6156462;23;20291;-86
2021/11/16 06:59:12;;;;;;;76.13;34.22;;;3.80;99.90;;;;;;6156378;23;20029;-85
2021/11/16 07:01:59;;;;;;;67.90;32.58;;;3.80;99.90;;;;;;6133115;23;20120;-85
2021/11/16 07:04:48;;;;;;;67.10;31.77;;;3.90;99.90;;;;;;6155884;23;20032;-86
2021/11/16 07:07:45;;;;;;;63.03;31.17;;;3.90;99.90;;;;;;6136293;23;20036;-84
2021/11/16 07:10:33;;;;;;;67.57;30.17;;;3.90;99.90;;;;;;6134304;23;20032;-80
2021/11/16 07:13:20;;;;;;;66.55;31.65;;;3.90;99.90;;;;;;6153298;23;20045;-83
2021/11/16 07:16:13;;;;;;;62.85;28.73;;;3.90;99.90;;;;;;6135736;23;20029;-84
2021/11/16 07:19:03;;;;;;;52.80;23.15;;;3.90;99.90;;;;;;6153768;23;20128;-84
2021/11/16 07:22:12;;;;;;;76.80;30.63;;;3.80;99.90;;;;;;6135377;23;20084;-84
2021/11/16 07:25:05;;;;;;;70.88;32.88;;;3.90;99.90;;;;;;6155211;23;20032;-85
2021/11/16 07:28:05;;;;;;;;;;;;;;;;;;;;;
2021/11/16 07:30:58;;;;;;;77.13;31.27;;;3.90;99.90;;;;;;6169723;23;20040;-82
2021/11/16 07:34:00;;;;;;;75.78;33.42;;;3.90;99.90;;;;;;6169470;23;20033;-85
2021/11/16 07:37:04;;;;;;;77.03;33.03;;;3.90;99.90;;;;;;6178311;23;20009;-85
2021/11/16 07:40:21;;;;;;;77.57;32.80;;;3.90;99.90;;;;;;6179021;23;20056;-81
2021/11/16 07:43:18;;;;;;;77.13;32.60;;;4.00;99.90;;;;;;6178890;23;20013;-80
2021/11/16 07:46:06;;;;;;;76.47;32.03;;;4.00;99.90;;;;;;6159640;23;20083;-83
2021/11/16 07:48:53;;;;;;;76.95;33.22;;;4.00;99.90;;;;;;6164529;23;20085;-84
2021/11/16 07:51:42;;;;;;;78.50;32.65;;;4.00;99.90;;;;;;6209057;23;20044;-86
2021/11/16 07:54:31;;;;;;;82.03;32.15;;;3.90;99.90;;;;;;6184377;23;20056;-86
2021/11/16 07:57:20;;;;;;;82.43;33.97;;;3.90;99.90;;;;;;6205699;23;20091;-86
2021/11/16 08:00:19;;;;;;;87.30;32.83;;;3.90;99.90;;;;;;6201105;23;20155;-86
2021/11/16 08:03:14;;;;;;;67.38;28.95;;;4.00;99.90;;;;;;6174975;23;20028;-83
2021/11/16 08:09:05;;;;;;;64.68;28.23;;;4.00;99.90;;;;;;6187380;23;20025;-87
2021/11/16 08:12:38;;;;;;;72.63;29.10;;;4.00;99.90;;;;;;6164051;23;20053;-87
2021/11/16 08:15:25;;;;;;;65.87;28.67;;;3.90;99.90;;;;;;6166330;23;20028;-86
2021/11/16 08:18:15;;;;;;;73.30;30.40;;;4.00;99.90;;;;;;6166329;23;20048;-87
2021/11/16 08:21:05;;;;;;;68.10;29.95;;;4.00;99.90;;;;;;6171171;23;20052;-86
2021/11/16 08:23:57;;;;;;;59.55;26.50;;;4.00;99.90;;;;;;6189595;23;20021;-85
2021/11/16 08:26:48;;;;;;;64.60;27.13;;;4.10;99.90;;;;;;6190674;23;20025;-84
2021/11/16 08:29:45;;;;;;;56.33;24.33;;;4.20;99.90;;;;;;6190613;23;20100;-86
2021/11/16 08:32:39;;;;;;;52.42;22.77;;;4.20;99.90;;;;;;6186289;23;20403;-85
2021/11/16 08:35:29;;;;;;;55.90;22.55;;;4.30;99.90;;;;;;6190014;23;20047;-88
2021/11/16 08:38:17;;;;;;;52.50;21.50;;;4.30;99.90;;;;;;6187062;23;20039;-89
2021/11/16 08:41:05;;;;;;;52.40;24.27;;;4.30;99.90;;;;;;6166867;23;20120;-85
2021/11/16 08:44:07;;;;;;;45.10;20.90;;;4.30;99.90;;;;;;6189010;23;20035;-87
2021/11/16 08:46:56;;;;;;;48.30;21.00;;;4.30;99.90;;;;;;6167564;23;20021;-87
2021/11/16 08:49:49;;;;;;;44.47;20.30;;;4.20;99.90;;;;;;6167802;23;20025;-87
2021/11/16 08:52:37;;;;;;;48.55;21.48;;;4.30;99.90;;;;;;6186963;23;20025;-84
2021/11/16 08:55:30;;;;;;;48.60;21.08;;;4.40;99.90;;;;;;6187349;23;20079;-86
2021/11/16 09:02:36;;;;;;;39.22;18.73;;;4.50;99.90;;;;;;6187254;23;20324;-84
2021/11/16 09:09:56;;;;;;;37.53;17.67;;;4.40;99.90;;;;;;6191530;23;20032;-88
2021/11/16 09:13:00;;;;;;;43.40;18.77;;;4.50;99.90;;;;;;6167171;23;20155;-87
2021/11/16 09:15:57;;;;;;;40.83;19.02;;;4.50;99.90;;;;;;6188242;23;20083;-86
2021/11/16 09:18:57;;;;;;;;;;;;;;;;;;;;;
2021/11/16 09:21:57;;;;;;;38.22;17.63;;;4.50;99.90;;;;;;6186803;23;20025;-88
2021/11/16 09:24:49;;;;;;;40.30;19.75;;;4.50;99.90;;;;;;6187047;23;20028;-88
2021/11/16 09:27:45;;;;;;;46.10;20.90;;;4.50;99.90;;;;;;6165129;23;20032;-83
2021/11/16 09:30:44;;;;;;;48.83;21.02;;;4.40;99.90;;;;;;6188374;23;20025;-85
2021/11/16 09:33:36;;;;;;;47.00;22.25;;;4.40;99.90;;;;;;6187046;23;20029;-85
2021/11/16 09:36:50;;;;;;;47.80;21.23;;;4.40;99.90;;;;;;6165840;23;20029;-85
2021/11/16 09:39:40;;;;;;;49.60;21.52;;;4.40;99.90;;;;;;6184069;23;20104;-86
2021/11/16 09:42:33;;;;;;;46.42;21.05;;;4.50;99.90;;;;;;6185486;23;20040;-86
2021/11/16 09:45:29;;;;;;;49.50;20.60;;;4.50;99.90;;;;;;6186172;23;20025;-87
2021/11/16 09:48:31;;;;;;;48.28;20.15;;;4.40;99.90;;;;;;6181892;23;20067;-88
2021/11/16 09:51:31;;;;;;;39.38;19.02;;;4.40;99.90;;;;;;6163801;23;20031;-85
2021/11/16 09:55:01;;;;;;;43.25;19.67;;;4.40;99.90;;;;;;6180057;23;20453;-86
2021/11/16 09:57:56;;;;;;;40.92;17.80;;;4.40;99.90;;;;;;6182211;23;20120;-84
2021/11/16 10:00:43;;;;;;;39.20;18.05;;;4.40;99.90;;;;;;6164307;23;20031;-86
2021/11/16 10:03:33;;;;;;;35.22;16.15;;;4.50;99.90;;;;;;6164980;23;20104;-86
2021/11/16 10:06:24;;;;;;;34.58;17.15;;;4.50;99.90;;;;;;6163575;23;20032;-88
2021/11/16 10:09:13;;;;;;;30.48;14.63;;;4.60;99.90;;;;;;6165790;23;20025;-88
2021/11/16 10:12:01;;;;;;;31.92;14.45;;;4.60;99.90;;;;;;6185429;23;20025;-89
2021/11/16 10:14:51;;;;;;;28.70;15.23;;;4.70;99.90;;;;;;6183231;23;20025;-85
2021/11/16 10:17:40;;;;;;;28.05;13.18;;;4.70;99.90;;;;;;6183580;23;20029;-87
2021/11/16 10:20:34;;;;;;;23.95;12.43;;;4.70;99.90;;;;;;6165302;23;20060;-86
2021/11/16 10:23:46;;;;;;;28.17;14.25;;;4.70;99.90;;;;;;6184180;23;20096;-87
2021/11/16 10:26:38;;;;;;;28.98;14.15;;;4.70;99.90;;;;;;6164882;23;20032;-82
2021/11/16 10:29:25;;;;;;;29.20;13.82;;;4.70;99.90;;;;;;6184836;23;20435;-86
2021/11/16 10:32:22;;;;;;;22.33;11.82;;;4.70;99.90;;;;;;6164445;23;20039;-86
2021/11/16 10:35:18;;;;;;;29.92;12.48;;;4.60;99.90;;;;;;6183537;23;20024;-86
2021/11/16 10:38:10;;;;;;;20.45;10.75;;;4.60;99.90;;;;;;6184534;23;20103;-83
2021/11/16 10:41:03;;;;;;;21.67;12.17;;;4.70;99.90;;;;;;6182070;23;20424;-83
2021/11/16 10:43:54;;;;;;;21.25;11.45;;;4.70;99.90;;;;;;6185948;23;20028;-84
2021/11/16 10:46:44;;;;;;;17.58;9.88;;;4.70;99.90;;;;;;6182699;23;20175;-88
2021/11/16 10:49:36;;;;;;;19.83;11.25;;;4.80;99.90;;;;;;6164212;23;20032;-89
2021/11/16 10:52:27;;;;;;;24.77;12.20;;;4.80;99.90;;;;;;6161465;23;20025;-89
2021/11/16 10:55:14;;;;;;;18.92;10.68;;;4.80;99.90;;;;;;6180252;23;20107;-89
2021/11/16 10:58:05;;;;;;;21.52;11.77;;;4.80;99.90;;;;;;6160668;23;20083;-81
2021/11/16 11:01:09;;;;;;;19.63;12.32;;;4.80;99.90;;;;;;6163339;23;20228;-87
2021/11/16 11:04:00;;;;;;;27.42;13.45;;;4.80;99.90;;;;;;6162466;23;20642;-87
2021/11/16 11:06:51;;;;;;;23.33;11.75;;;4.80;99.90;;;;;;6185060;23;20393;-87
2021/11/16 11:09:50;;;;;;;17.15;9.13;;;4.90;99.90;;;;;;6180982;23;20128;-88
2021/11/16 11:12:47;;;;;;;20.45;11.43;;;4.90;99.90;;;;;;6182213;23;20346;-85
2021/11/16 11:15:54;;;;;;;20.42;11.38;;;4.90;99.90;;;;;;6161954;23;20025;-87
2021/11/16 11:18:45;;;;;;;18.50;10.30;;;4.90;99.90;;;;;;6101293;23;20024;-86
2021/11/16 11:21:54;;;;;;;;;;;;;;;;;;;;;
2021/11/16 11:26:17;;;;;;;;;;;;;;;;;;;;;
2021/11/16 11:30:08;;;;;;;20.63;12.57;;;5.00;99.90;;;;;;6184531;23;20096;-85
2021/11/16 11:33:01;;;;;;;17.75;10.43;;;5.00;99.90;;;;;;6183482;23;20040;-89
2021/11/16 11:43:26;;;;;;;16.85;10.40;;;5.00;99.90;;;;;;6093053;23;20027;-87
2021/11/16 11:46:23;;;;;;;15.93;9.77;;;5.00;99.90;;;;;;6092160;23;20022;-87
2021/11/16 11:49:55;;;;;;;21.52;11.48;;;5.00;99.90;;;;;;6075737;23;20086;-88
2021/11/16 11:52:44;;;;;;;19.63;12.15;;;5.00;99.90;;;;;;6073810;23;20173;-87
2021/11/16 11:55:35;;;;;;;19.15;11.68;;;5.00;99.90;;;;;;6075236;23;20136;-82
2021/11/16 11:58:30;;;;;;;21.02;12.75;;;5.00;99.90;;;;;;6093692;23;20058;-87
2021/11/16 12:01:18;;;;;;;20.00;11.18;;;5.00;99.90;;;;;;6093734;23;20038;-86
2021/11/16 12:04:17;;;;;;;;;;;;;;;;;;;;;
2021/11/16 12:07:07;;;;;;;19.15;11.20;;;5.10;99.90;;;;;;6095037;23;20144;-86
2021/11/16 12:10:00;;;;;;;19.88;11.88;;;5.10;99.90;;;;;;6095101;23;20026;-88
2021/11/16 12:13:09;;;;;;;19.52;12.15;;;5.00;99.90;;;;;;5937794;24;20037;-83
2021/11/16 12:16:12;;;;;;;21.95;12.95;;;5.00;99.90;;;;;;5969960;23;20038;-90
2021/11/16 12:19:08;;;;;;;28.38;14.32;;;5.00;99.90;;;;;;6040203;23;20031;-85
2021/11/16 12:22:28;;;;;;;22.65;13.57;;;5.10;99.90;;;;;;6041469;23;20035;-87
2021/11/16 12:30:10;;;;;;;;;;;;;;;;;;;;;
2021/11/16 12:33:42;;;;;;;20.17;11.75;;;5.30;99.90;;;;;;6116301;23;20408;-90
2021/11/16 12:36:59;;;;;;;19.33;11.82;;;5.20;99.90;;;;;;6175698;23;20082;-86
2021/11/16 12:44:56;;;;;;;18.63;11.57;;;5.20;99.90;;;;;;6113666;23;20444;-85
2021/11/16 12:47:59;;;;;;;17.70;11.48;;;5.20;99.90;;;;;;6165818;23;20029;-89
2021/11/16 12:51:13;;;;;;;17.40;11.27;;;5.20;99.90;;;;;;6167394;23;20069;-84
2021/11/16 12:54:29;;;;;;;22.80;12.40;;;5.20;99.90;;;;;;6185519;23;20029;-84
2021/11/16 12:57:28;;;;;;;17.92;11.75;;;5.10;99.90;;;;;;6186714;23;20123;-89
2021/11/16 13:00:16;;;;;;;19.70;11.75;;;5.20;99.90;;;;;;6191890;23;20025;-89
2021/11/16 13:03:09;;;;;;;15.98;10.20;;;5.20;99.90;;;;;;6198681;23;20033;-90
2021/11/16 13:06:12;;;;;;;14.57;8.82;;;5.20;99.90;;;;;;6174809;23;20021;-88
2021/11/16 13:09:00;;;;;;;16.95;9.55;;;5.30;99.90;;;;;;6175808;23;20013;-82
2021/11/16 13:12:03;;;;;;;15.65;10.25;;;5.30;99.90;;;;;;6190572;23;20081;-85
2021/11/16 13:14:59;;;;;;;12.93;9.13;;;5.30;99.90;;;;;;6188593;23;20097;-84
2021/11/16 13:18:11;;;;;;;14.48;9.48;;;5.30;99.90;;;;;;6211786;23;20013;-87
2021/11/16 13:21:23;;;;;;;14.88;8.75;;;5.20;99.90;;;;;;6191251;23;20036;-83
2021/11/16 13:25:04;;;;;;;;;;;;;;;;;;;;;
2021/11/16 13:33:23;;;;;;;;;;;;;;;;;;;;;
2021/11/16 13:53:26;;;;;;;14.85;9.38;;;5.50;99.90;;;;;;5935231;24;20017;-90
2021/11/16 13:56:56;;;;;;;;;;;;;;;;;;;;;
2021/11/16 15:27:58;;;;;;;18.05;10.73;;;4.80;99.90;;;;;;5880591;24;20080;-88
2021/11/16 15:31:19;;;;;;;18.52;10.98;;;4.80;99.90;;;;;;5913317;24;20036;-88
2021/11/16 15:34:30;;;;;;;18.83;11.68;;;4.80;99.90;;;;;;6058983;23;20038;-88
2021/11/16 15:38:46;;;;;;;;;;;;;;;;;;;;;
2021/11/16 15:42:44;;;;;;;20.35;11.07;;;4.80;99.90;;;;;;5902502;24;20028;-88
2021/11/16 16:52:19;;;;;;;27.50;15.20;;;4.20;99.90;;;;;;5328960;22;21256995;-89
2021/11/16 16:55:35;;;;;;;27.83;15.77;;;4.20;99.90;;;;;;6216219;23;20024;-89
2021/11/16 16:58:25;;;;;;;30.23;15.57;;;4.20;99.90;;;;;;6232762;23;20024;-87
2021/11/16 17:01:16;;;;;;;28.33;15.02;;;4.20;99.90;;;;;;6227356;23;20032;-86
2021/11/16 17:04:04;;;;;;;27.15;14.52;;;4.20;99.90;;;;;;6247265;22;20268;-88
2021/11/16 17:06:52;;;;;;;29.52;15.88;;;4.20;99.90;;;;;;6227662;22;20021;-88
2021/11/16 17:09:47;;;;;;;30.45;15.88;;;4.20;99.90;;;;;;6223590;23;20084;-86
2021/11/16 17:12:40;;;;;;;30.00;15.80;;;4.20;99.90;;;;;;6245359;22;20124;-89
2021/11/16 17:15:27;;;;;;;31.60;15.23;;;4.10;99.90;;;;;;6227054;22;20024;-87
2021/11/16 17:18:14;;;;;;;32.05;15.07;;;4.20;99.90;;;;;;6226839;22;20033;-88
2021/11/16 17:21:03;;;;;;;25.77;15.90;;;4.20;99.90;;;;;;6226271;22;20032;-85
2021/11/16 17:23:51;;;;;;;29.33;15.93;;;4.20;99.90;;;;;;6228813;23;20043;-86
2021/11/16 17:26:41;;;;;;;34.38;16.45;;;4.20;99.90;;;;;;6226351;23;20051;-87
2021/11/16 17:29:33;;;;;;;32.15;16.75;;;4.20;99.90;;;;;;6234937;22;20051;-86
2021/11/16 17:32:23;;;;;;;34.90;18.63;;;4.20;99.90;;;;;;6258952;22;20020;-90
2021/11/16 17:35:25;;;;;;;;;;;;;;;;;;;;;
2021/11/16 17:42:33;;;;;;;;;;;;;;;;;;;;;
2021/11/16 17:45:35;;;;;;;34.15;18.35;;;4.10;99.90;;;;;;6222787;23;20087;-87
2021/11/16 17:48:51;;;;;;;35.72;18.40;;;4.10;99.90;;;;;;6223744;22;20020;-87
2021/11/16 17:52:38;;;;;;;;;;;;;;;;;;;;;
2021/11/16 17:56:30;;;;;;;;;;;;;;;;;;;;;
2021/11/16 17:59:43;;;;;;;37.78;19.48;;;4.10;99.90;;;;;;6106681;23;20182;-87
2021/11/16 18:02:42;;;;;;;37.53;19.83;;;4.20;99.90;;;;;;6128720;23;20036;-89
2021/11/16 18:05:45;;;;;;;38.85;20.17;;;4.20;99.90;;;;;;6126994;23;20097;-88
2021/11/16 18:08:56;;;;;;;35.47;19.70;;;4.30;99.90;;;;;;6127676;23;20064;-88
2021/11/16 18:11:57;;;;;;;33.83;18.60;;;4.30;99.90;;;;;;6222411;22;20031;-87
2021/11/16 18:14:58;;;;;;;36.72;19.75;;;4.30;99.90;;;;;;6226683;22;20355;-88
2021/11/16 18:17:49;;;;;;;37.28;19.75;;;4.30;99.90;;;;;;6221939;23;20372;-86
2021/11/16 18:20:41;;;;;;;38.40;20.25;;;4.20;99.90;;;;;;6223033;22;20082;-89
2021/11/16 18:23:29;;;;;;;38.38;19.30;;;4.30;99.90;;;;;;6219390;23;20028;-90
2021/11/16 18:26:21;;;;;;;35.90;18.88;;;4.30;99.90;;;;;;6219898;23;20034;-88
2021/11/16 18:29:10;;;;;;;37.77;20.73;;;4.30;99.90;;;;;;6216662;23;20024;-90
2021/11/16 18:32:06;;;;;;;36.28;19.58;;;4.30;99.90;;;;;;6218348;22;20259;-90
2021/11/16 18:34:55;;;;;;;34.00;20.10;;;4.30;99.90;;;;;;6217292;22;20100;-88
2021/11/16 18:38:08;;;;;;;35.95;18.42;;;4.30;99.90;;;;;;6238720;23;20028;-88
2021/11/16 18:41:13;;;;;;;34.85;18.35;;;4.30;99.90;;;;;;6201747;23;20028;-89
2021/11/16 18:47:21;;;;;;;29.27;17.23;;;4.20;99.90;;;;;;6217479;23;20028;-89
2021/11/16 18:51:08;;;;;;;32.97;17.58;;;4.20;99.90;;;;;;6215816;23;20020;-85
2021/11/16 18:54:10;;;;;;;31.00;16.50;;;4.20;99.90;;;;;;6221572;22;20032;-87
2021/11/16 18:57:38;;;;;;;31.52;17.08;;;4.30;99.90;;;;;;6219375;23;20099;-89
2021/11/16 19:00:39;;;;;;;;;;;;;;;;;;;;;
2021/11/16 19:03:49;;;;;;;;;;;4.30;99.90;;;;;;6156695;23;20115;-88
2021/11/16 19:07:30;;;;;;;;;;;;;;;;;;;;;
2021/11/16 19:10:30;;;;;;;28.05;15.68;;;4.20;99.90;;;;;;6156087;23;20041;-86
2021/11/16 19:13:18;;;;;;;29.27;16.17;;;4.30;99.90;;;;;;6156516;23;20029;-86
2021/11/16 19:16:13;;;;;;;32.17;18.88;;;4.30;99.90;;;;;;6135498;23;20026;-89
2021/11/16 19:19:15;;;;;;;37.95;18.50;;;4.20;99.90;;;;;;6070682;23;20039;-88
2021/11/16 19:22:07;;;;;;;34.65;19.13;;;4.20;99.90;;;;;;6138152;23;20104;-86
2021/11/16 19:25:14;;;;;;;33.40;18.33;;;4.20;99.90;;;;;;6159715;23;20040;-85
2021/11/16 19:28:42;;;;;;;37.22;19.80;;;4.20;99.90;;;;;;6160146;23;20156;-92
2021/11/16 19:31:54;;;;;;;41.92;21.67;;;4.20;99.90;;;;;;6110946;23;20022;-85
2021/11/16 20:39:44;;;;;;;;;;;;;;;;;;;;;
2021/11/16 20:47:53;;;;;;;38.80;19.88;;;4.10;99.90;;;;;;6071234;23;20034;-89
2021/11/16 21:04:23;;;;;;;46.75;23.92;;;4.20;99.90;;;;;;5895469;22;15100964;-88
2021/11/16 21:12:37;;;;;;;;;;;;;;;;;;;;;
2021/11/16 21:23:57;;;;;;;46.25;22.85;;;4.30;99.90;;;;;;6072421;23;20027;-91
2021/11/16 21:27:04;;;;;;;40.85;21.48;;;4.30;99.90;;;;;;6130490;23;20033;-88
2021/11/16 21:30:01;;;;;;;36.40;19.08;;;4.30;99.90;;;;;;6136276;23;20037;-86
2021/11/16 21:33:05;;;;;;;38.53;18.58;;;4.30;99.90;;;;;;6129531;23;20128;-88
2021/11/16 21:36:11;;;;;;;36.88;17.85;;;4.30;99.90;;;;;;6127689;23;20417;-89
2021/11/16 21:39:12;;;;;;;37.17;17.92;;;4.30;99.90;;;;;;6136183;23;20041;-86
2021/11/16 21:42:04;;;;;;;32.60;17.63;;;4.30;99.90;;;;;;6116539;23;20026;-90
2021/11/16 21:45:14;;;;;;;35.35;17.70;;;4.30;99.90;;;;;;6135512;23;20081;-90
2021/11/16 21:48:05;;;;;;;23.88;14.35;;;4.30;99.90;;;;;;6197001;23;20035;-91
2021/11/16 21:50:55;;;;;;;31.23;16.98;;;4.30;99.90;;;;;;6196150;23;20025;-89
2021/11/16 21:53:46;;;;;;;30.65;17.02;;;4.30;99.90;;;;;;6198997;23;20047;-91
2021/11/16 21:56:46;;;;;;;28.38;16.27;;;4.30;99.90;;;;;;6199253;23;20498;-88
2021/11/16 22:00:15;;;;;;;;;;;;;;;;;;;;;
2021/11/16 22:03:07;;;;;;;27.98;15.77;;;4.30;99.90;;;;;;6190827;23;20100;-89
2021/11/16 22:06:04;;;;;;;28.67;15.77;;;4.20;99.90;;;;;;6193006;23;20025;-88
2021/11/16 22:12:41;;;;;;;26.40;14.60;;;4.20;99.90;;;;;;6191426;23;20116;-86
2021/11/16 22:15:36;;;;;;;22.55;12.65;;;4.30;99.90;;;;;;6192758;23;20032;-88
2021/11/16 22:18:37;;;;;;;;;;;;;;;;;;;;;
2021/11/16 22:21:30;;;;;;;22.50;12.02;;;4.30;99.90;;;;;;6190238;23;20115;-86
2021/11/16 22:24:21;;;;;;;14.57;9.70;;;4.30;99.90;;;;;;6193246;23;20047;-88
2021/11/16 22:27:38;;;;;;;17.65;10.15;;;4.30;99.90;;;;;;6228057;23;20025;-88
2021/11/16 22:30:28;;;;;;;18.05;10.30;;;4.30;99.90;;;;;;6192385;23;20021;-87
2021/11/16 22:33:18;;;;;;;18.67;9.27;;;4.30;99.90;;;;;;6191775;23;20036;-89
2021/11/16 22:36:07;;;;;;;16.67;10.30;;;4.30;99.90;;;;;;6190131;23;20028;-88
2021/11/16 22:38:55;;;;;;;13.68;9.77;;;4.30;99.90;;;;;;6191597;23;20040;-89
2021/11/16 22:41:54;;;;;;;13.15;8.23;;;4.30;99.90;;;;;;6188010;23;20052;-89
2021/11/16 22:44:47;;;;;;;15.38;8.63;;;4.30;99.90;;;;;;6193326;23;20029;-91
2021/11/16 22:48:17;;;;;;;12.05;7.38;;;4.30;99.90;;;;;;6195295;23;20029;-88
2021/11/16 22:51:07;;;;;;;10.60;7.63;;;4.30;99.90;;;;;;6189508;23;20041;-88
2021/11/16 22:53:55;;;;;;;10.43;7.60;;;4.30;99.90;;;;;;6190744;23;20032;-89
2021/11/16 22:56:42;;;;;;;10.10;6.65;;;4.30;99.90;;;;;;6230132;23;20029;-88
